createdAt,value
2018-09-17T00:00:15.905Z,80.01
2018-09-17T00:01:15.898Z,79.91
2018-09-17T00:02:15.903Z,79.43
2018-09-17T00:03:15.872Z,79.84
2018-09-17T00:04:15.860Z,79.84
2018-09-17T00:05:15.868Z,80.15
2018-09-17T00:06:15.849Z,80.97
2018-09-17T00:07:15.826Z,80.25
2018-09-17T00:08:15.854Z,80.05
2018-09-17T00:09:15.805Z,79.64
2018-09-17T00:10:15.792Z,80.05
2018-09-17T00:11:15.783Z,80.05
2018-09-17T00:12:15.791Z,80.35
2018-09-17T00:13:15.763Z,81.38
2018-09-17T00:14:15.751Z,80.35
2018-09-17T00:15:15.748Z,80.25
2018-09-17T00:16:15.725Z,80.97
2018-09-17T00:17:15.741Z,80.66
2018-09-17T00:18:15.702Z,80.46
2018-09-17T00:19:15.695Z,80.76
2018-09-17T00:20:15.679Z,80.69
2018-09-17T00:21:15.692Z,80.25
2018-09-17T00:22:15.660Z,80.19
2018-09-17T00:23:15.646Z,80.15
2018-09-17T00:24:15.638Z,80.39
2018-09-17T00:25:15.662Z,80.87
2018-09-17T00:26:15.666Z,80.76
2018-09-17T00:27:15.603Z,80.25
2018-09-17T00:28:15.591Z,80.35
2018-09-17T00:29:15.587Z,79.94
2018-09-17T00:30:15.572Z,81.07
2018-09-17T00:31:15.582Z,79.94
2018-09-17T00:32:15.555Z,79.84
2018-09-17T00:33:15.536Z,79.84
2018-09-17T00:34:15.526Z,79.94
2018-09-17T00:35:15.523Z,80.05
2018-09-17T00:36:15.552Z,80.05
2018-09-17T00:37:15.491Z,80.25
2018-09-17T00:38:15.480Z,80.15
2018-09-17T00:39:15.469Z,80.35
2018-09-17T00:40:15.485Z,79.84
2018-09-17T00:41:15.457Z,79.94
2018-09-17T00:42:15.438Z,79.64
2018-09-17T00:43:15.449Z,79.74
2018-09-17T00:44:15.414Z,79.84
2018-09-17T00:45:15.410Z,79.74
2018-09-17T00:46:15.399Z,79.37
2018-09-17T00:47:15.380Z,79.53
2018-09-17T00:48:15.448Z,79.57
2018-09-17T00:49:15.357Z,79.78
2018-09-17T00:50:15.364Z,79.78
2018-09-17T00:51:15.337Z,80.19
2018-09-17T00:52:15.369Z,79.98
2018-09-17T00:53:15.317Z,79.78
2018-09-17T00:54:15.326Z,80.90
2018-09-17T00:55:15.298Z,81.10
2018-09-17T00:56:15.279Z,80.80
2018-09-17T00:57:15.291Z,81.93
2018-09-17T00:58:15.325Z,82.23
2018-09-17T00:59:15.274Z,82.13
2018-09-17T01:00:15.235Z,81.35
2018-09-17T01:01:15.223Z,81.24
2018-09-17T01:02:15.220Z,81.35
2018-09-17T01:03:15.226Z,81.18
2018-09-17T01:04:15.206Z,81.38
2018-09-17T01:05:15.181Z,81.79
2018-09-17T01:06:15.170Z,82.21
2018-09-17T01:07:15.185Z,82.31
2018-09-17T01:08:15.152Z,82.71
2018-09-17T01:09:15.154Z,83.13
2018-09-17T01:10:15.159Z,82.82
2018-09-17T01:11:15.115Z,82.35
2018-09-17T01:12:15.115Z,81.73
2018-09-17T01:13:15.093Z,82.35
2018-09-17T01:14:15.150Z,83.17
2018-09-17T01:15:15.076Z,83.37
2018-09-17T01:16:15.060Z,84.39
2018-09-17T01:17:15.059Z,84.23
2018-09-17T01:18:15.039Z,83.78
2018-09-17T01:19:15.053Z,83.82
2018-09-17T01:20:15.017Z,84.44
2018-09-17T01:21:15.029Z,84.44
2018-09-17T01:22:14.996Z,84.33
2018-09-17T01:23:14.989Z,84.23
2018-09-17T01:24:15.079Z,83.82
2018-09-17T01:25:14.960Z,83.82
2018-09-17T01:26:14.974Z,83.92
2018-09-17T01:27:14.944Z,83.82
2018-09-17T01:28:14.964Z,83.92
2018-09-17T01:29:14.915Z,83.72
2018-09-17T01:30:14.934Z,83.61
2018-09-17T01:31:14.896Z,83.82
2018-09-17T01:32:14.890Z,83.82
2018-09-17T01:33:14.875Z,84.44
2018-09-17T01:34:14.857Z,83.20
2018-09-17T01:35:14.957Z,83.06
2018-09-17T01:36:14.872Z,82.45
2018-09-17T01:37:14.831Z,82.65
2018-09-17T01:38:14.820Z,82.24
2018-09-17T01:39:14.817Z,81.94
2018-09-17T01:40:14.795Z,81.63
2018-09-17T01:41:14.806Z,82.24
2018-09-17T01:42:14.796Z,81.73
2018-09-17T01:43:14.778Z,82.24
2018-09-17T01:44:14.765Z,82.24
2018-09-17T01:45:14.733Z,81.84
2018-09-17T01:46:14.786Z,81.84
2018-09-17T01:47:14.739Z,81.22
2018-09-17T01:48:14.703Z,81.73
2018-09-17T01:49:14.692Z,81.22
2018-09-17T01:50:14.688Z,81.12
2018-09-17T01:51:14.701Z,82.55
2018-09-17T01:52:14.667Z,82.35
2018-09-17T01:53:14.645Z,81.84
2018-09-17T01:54:14.634Z,81.63
2018-09-17T01:55:14.627Z,81.12
2018-09-17T01:56:14.653Z,81.43
2018-09-17T01:57:14.601Z,81.22
2018-09-17T01:58:14.589Z,81.52
2018-09-17T01:59:14.589Z,81.32
2018-09-17T02:00:14.574Z,83.17
2018-09-17T02:01:14.596Z,82.69
2018-09-17T02:02:14.557Z,83.00
2018-09-17T02:03:14.536Z,82.24
2018-09-17T02:04:14.526Z,83.20
2018-09-17T02:05:14.513Z,82.79
2018-09-17T02:06:14.529Z,83.00
2018-09-17T02:07:14.502Z,82.39
2018-09-17T02:08:14.481Z,83.00
2018-09-17T02:09:14.477Z,83.00
2018-09-17T02:10:14.486Z,83.00
2018-09-17T02:11:14.479Z,82.39
2018-09-17T02:12:14.435Z,82.79
2018-09-17T02:13:14.432Z,82.59
2018-09-17T02:14:14.412Z,82.28
2018-09-17T02:15:14.401Z,82.28
2018-09-17T02:16:14.416Z,82.49
2018-09-17T02:17:14.379Z,82.59
2018-09-17T02:18:14.373Z,82.39
2018-09-17T02:19:14.369Z,82.69
2018-09-17T02:20:14.350Z,82.08
2018-09-17T02:21:14.398Z,82.08
2018-09-17T02:22:14.325Z,82.28
2018-09-17T02:23:14.321Z,82.79
2018-09-17T02:24:14.305Z,82.90
2018-09-17T02:25:14.298Z,84.44
2018-09-17T02:26:14.307Z,84.12
2018-09-17T02:27:14.269Z,84.12
2018-09-17T02:28:14.300Z,84.12
2018-09-17T02:29:14.245Z,84.17
2018-09-17T02:30:14.245Z,83.65
2018-09-17T02:31:14.226Z,84.37
2018-09-17T02:32:14.217Z,84.06
2018-09-17T02:33:14.228Z,83.96
2018-09-17T02:34:14.218Z,84.06
2018-09-17T02:35:14.181Z,84.47
2018-09-17T02:36:14.193Z,84.52
2018-09-17T02:37:14.167Z,84.92
2018-09-17T02:38:14.146Z,84.52
2018-09-17T02:39:14.170Z,84.92
2018-09-17T02:40:14.122Z,84.41
2018-09-17T02:41:14.116Z,83.63
2018-09-17T02:42:14.111Z,84.66
2018-09-17T02:43:14.088Z,84.76
2018-09-17T02:44:14.106Z,84.55
2018-09-17T02:45:14.066Z,84.96
2018-09-17T02:46:14.103Z,85.03
2018-09-17T02:47:14.055Z,85.44
2018-09-17T02:48:14.033Z,85.17
2018-09-17T02:49:14.026Z,85.58
2018-09-17T02:50:14.064Z,84.96
2018-09-17T02:51:14.002Z,85.33
2018-09-17T02:52:13.995Z,85.27
2018-09-17T02:53:13.984Z,84.96
2018-09-17T02:54:14.001Z,84.86
2018-09-17T02:55:13.960Z,84.96
2018-09-17T02:56:13.980Z,84.96
2018-09-17T02:57:13.962Z,85.06
2018-09-17T02:58:13.924Z,84.86
2018-09-17T02:59:13.918Z,84.96
2018-09-17T03:00:13.903Z,85.06
2018-09-17T03:01:13.888Z,85.06
2018-09-17T03:02:13.911Z,85.06
2018-09-17T03:03:13.866Z,84.76
2018-09-17T03:04:13.871Z,85.06
2018-09-17T03:05:13.861Z,84.66
2018-09-17T03:06:13.837Z,84.76
2018-09-17T03:07:13.872Z,85.47
2018-09-17T03:08:13.810Z,84.86
2018-09-17T03:09:13.799Z,84.76
2018-09-17T03:10:13.789Z,85.38
2018-09-17T03:11:13.791Z,84.96
2018-09-17T03:12:13.804Z,85.47
2018-09-17T03:13:13.758Z,85.38
2018-09-17T03:14:13.746Z,84.86
2018-09-17T03:15:13.736Z,84.86
2018-09-17T03:16:13.733Z,85.38
2018-09-17T03:17:13.748Z,85.17
2018-09-17T03:18:13.703Z,85.06
2018-09-17T03:19:13.689Z,85.78
2018-09-17T03:20:13.704Z,85.06
2018-09-17T03:21:13.667Z,86.40
2018-09-17T03:22:13.681Z,86.30
2018-09-17T03:23:13.646Z,86.40
2018-09-17T03:24:13.631Z,86.54
2018-09-17T03:25:13.622Z,86.40
2018-09-17T03:26:13.609Z,86.40
2018-09-17T03:27:13.629Z,86.40
2018-09-17T03:28:13.600Z,85.72
2018-09-17T03:29:13.578Z,85.52
2018-09-17T03:30:13.579Z,85.00
2018-09-17T03:31:13.552Z,85.21
2018-09-17T03:32:13.576Z,85.62
2018-09-17T03:33:13.539Z,86.33
2018-09-17T03:34:13.529Z,86.33
2018-09-17T03:35:13.510Z,86.54
2018-09-17T03:36:13.502Z,87.88
2018-09-17T03:37:13.524Z,87.88
2018-09-17T03:38:13.477Z,87.57
2018-09-17T03:39:13.469Z,87.92
2018-09-17T03:40:13.465Z,87.05
2018-09-17T03:41:13.451Z,87.82
2018-09-17T03:42:13.482Z,88.23
2018-09-17T03:43:13.419Z,87.71
2018-09-17T03:44:13.420Z,87.82
2018-09-17T03:45:13.404Z,86.68
2018-09-17T03:46:13.428Z,86.79
2018-09-17T03:47:13.414Z,87.20
2018-09-17T03:48:13.370Z,87.92
2018-09-17T03:49:13.356Z,87.96
2018-09-17T03:50:13.384Z,87.75
2018-09-17T03:51:13.337Z,88.06
2018-09-17T03:52:13.319Z,87.75
2018-09-17T03:53:13.358Z,87.55
2018-09-17T03:54:13.298Z,87.24
2018-09-17T03:55:13.294Z,87.13
2018-09-17T03:56:13.274Z,86.52
2018-09-17T03:57:13.271Z,87.75
2018-09-17T03:58:13.283Z,87.96
2018-09-17T03:59:13.253Z,88.17
2018-09-17T04:00:13.267Z,88.72
2018-09-17T04:01:13.223Z,88.27
2018-09-17T04:02:13.219Z,88.00
2018-09-17T04:03:13.220Z,87.75
2018-09-17T04:04:13.189Z,86.97
2018-09-17T04:05:13.223Z,87.49
2018-09-17T04:06:13.165Z,87.79
2018-09-17T04:07:13.161Z,88.47
2018-09-17T04:08:13.157Z,87.96
2018-09-17T04:09:13.157Z,89.03
2018-09-17T04:10:13.166Z,88.57
2018-09-17T04:11:13.114Z,88.31
2018-09-17T04:12:13.097Z,89.09
2018-09-17T04:13:13.085Z,89.09
2018-09-17T04:14:13.090Z,89.19
2018-09-17T04:15:13.092Z,88.68
2018-09-17T04:16:13.056Z,88.31
2018-09-17T04:17:13.041Z,89.09
2018-09-17T04:18:13.029Z,89.03
2018-09-17T04:19:13.060Z,89.09
2018-09-17T04:20:13.015Z,88.78
2018-09-17T04:21:12.996Z,89.19
2018-09-17T04:22:13.012Z,89.09
2018-09-17T04:23:12.978Z,88.47
2018-09-17T04:24:12.975Z,88.27
2018-09-17T04:25:12.955Z,88.31
2018-09-17T04:26:12.971Z,88.51
2018-09-17T04:27:12.934Z,87.55
2018-09-17T04:28:12.937Z,87.90
2018-09-17T04:29:12.912Z,87.79
2018-09-17T04:30:12.897Z,87.69
2018-09-17T04:31:12.918Z,87.59
2018-09-17T04:32:12.873Z,87.90
2018-09-17T04:33:12.926Z,87.90
2018-09-17T04:34:12.855Z,88.31
2018-09-17T04:35:12.856Z,88.00
2018-09-17T04:36:12.868Z,88.10
2018-09-17T04:37:12.826Z,87.55
2018-09-17T04:38:12.807Z,87.75
2018-09-17T04:39:12.797Z,87.65
2018-09-17T04:40:12.786Z,87.90
2018-09-17T04:41:12.824Z,87.65
2018-09-17T04:42:12.762Z,87.75
2018-09-17T04:43:12.791Z,87.85
2018-09-17T04:44:12.740Z,88.27
2018-09-17T04:45:12.733Z,88.02
2018-09-17T04:46:12.743Z,87.82
2018-09-17T04:47:12.709Z,87.65
2018-09-17T04:48:12.701Z,88.33
2018-09-17T04:49:12.692Z,87.75
2018-09-17T04:50:12.727Z,88.17
2018-09-17T04:51:12.666Z,87.65
2018-09-17T04:52:12.651Z,88.17
2018-09-17T04:53:12.642Z,88.17
2018-09-17T04:54:12.665Z,87.55
2018-09-17T04:55:12.642Z,88.37
2018-09-17T04:56:12.608Z,88.78
2018-09-17T04:57:12.624Z,88.89
2018-09-17T04:58:12.612Z,88.92
2018-09-17T04:59:12.579Z,88.89
2018-09-17T05:00:12.597Z,88.06
2018-09-17T05:01:12.574Z,87.79
2018-09-17T05:02:12.578Z,88.62
2018-09-17T05:03:12.560Z,89.03
2018-09-17T05:04:12.544Z,88.37
2018-09-17T05:05:12.512Z,88.37
2018-09-17T05:06:12.513Z,88.89
2018-09-17T05:07:12.522Z,88.98
2018-09-17T05:08:12.512Z,88.98
2018-09-17T05:09:12.520Z,88.89
2018-09-17T05:10:12.453Z,88.23
2018-09-17T05:11:12.451Z,87.82
2018-09-17T05:12:12.436Z,88.12
2018-09-17T05:13:12.467Z,87.96
2018-09-17T05:14:12.449Z,87.61
2018-09-17T05:15:12.438Z,87.96
2018-09-17T05:16:12.391Z,88.06
2018-09-17T05:17:12.377Z,88.06
2018-09-17T05:18:12.378Z,88.68
2018-09-17T05:19:12.354Z,88.17
2018-09-17T05:20:12.386Z,87.85
2018-09-17T05:21:12.348Z,87.55
2018-09-17T05:22:12.323Z,87.65
2018-09-17T05:23:12.314Z,88.17
2018-09-17T05:24:12.313Z,87.75
2018-09-17T05:25:12.341Z,87.85
2018-09-17T05:26:12.287Z,88.06
2018-09-17T05:27:12.262Z,88.33
2018-09-17T05:28:12.270Z,88.43
2018-09-17T05:29:12.347Z,88.53
2018-09-17T05:30:12.287Z,88.43
2018-09-17T05:31:12.225Z,87.92
2018-09-17T05:32:12.219Z,88.02
2018-09-17T05:33:12.201Z,87.82
2018-09-17T05:34:12.191Z,87.40
2018-09-17T05:35:12.240Z,88.02
2018-09-17T05:36:12.166Z,88.12
2018-09-17T05:37:12.155Z,87.67
2018-09-17T05:38:12.144Z,87.37
2018-09-17T05:39:12.145Z,86.65
2018-09-17T05:40:12.151Z,87.20
2018-09-17T05:41:12.136Z,87.37
2018-09-17T05:42:12.095Z,86.54
2018-09-17T05:43:12.094Z,87.05
2018-09-17T05:44:12.079Z,87.05
2018-09-17T05:45:12.075Z,87.02
2018-09-17T05:46:12.080Z,87.32
2018-09-17T05:47:12.049Z,87.63
2018-09-17T05:48:12.034Z,87.63
2018-09-17T05:49:12.021Z,87.73
2018-09-17T05:50:12.032Z,87.73
2018-09-17T05:51:12.042Z,86.50
2018-09-17T05:52:11.993Z,86.91
2018-09-17T05:53:11.972Z,86.66
2018-09-17T05:54:11.962Z,87.28
2018-09-17T05:55:11.950Z,87.63
2018-09-17T05:56:11.966Z,86.77
2018-09-17T05:57:11.935Z,86.46
2018-09-17T05:58:11.920Z,86.46
2018-09-17T05:59:11.939Z,86.46
2018-09-17T06:00:11.896Z,86.66
2018-09-17T06:01:11.896Z,85.50
2018-09-17T06:02:11.902Z,85.46
2018-09-17T06:03:11.863Z,84.88
2018-09-17T06:04:11.853Z,84.58
2018-09-17T06:05:11.839Z,85.36
2018-09-17T06:06:11.834Z,84.74
2018-09-17T06:07:11.952Z,85.25
2018-09-17T06:08:11.808Z,84.74
2018-09-17T06:09:11.795Z,84.39
2018-09-17T06:10:11.796Z,84.29
2018-09-17T06:11:11.775Z,84.09
2018-09-17T06:12:11.789Z,83.64
2018-09-17T06:13:11.760Z,84.15
2018-09-17T06:14:11.739Z,83.03
2018-09-17T06:15:11.734Z,82.92
2018-09-17T06:16:11.721Z,83.74
2018-09-17T06:17:11.782Z,83.09
2018-09-17T06:18:11.694Z,82.89
2018-09-17T06:19:11.684Z,82.78
2018-09-17T06:20:11.673Z,82.98
2018-09-17T06:21:11.694Z,82.37
2018-09-17T06:22:11.652Z,82.54
2018-09-17T06:23:11.704Z,82.95
2018-09-17T06:24:11.628Z,82.64
2018-09-17T06:25:11.616Z,81.07
2018-09-17T06:26:11.607Z,80.76
2018-09-17T06:27:11.603Z,81.07
2018-09-17T06:28:11.615Z,81.17
2018-09-17T06:29:11.598Z,80.35
2018-09-17T06:30:11.574Z,80.35
2018-09-17T06:31:11.554Z,80.32
2018-09-17T06:32:11.555Z,80.62
2018-09-17T06:33:11.531Z,80.62
2018-09-17T06:34:11.554Z,79.80
2018-09-17T06:35:11.510Z,79.91
2018-09-17T06:36:11.522Z,79.16
2018-09-17T06:37:11.543Z,79.29
2018-09-17T06:38:11.474Z,79.16
2018-09-17T06:39:11.468Z,79.36
2018-09-17T06:40:11.484Z,79.05
2018-09-17T06:41:11.485Z,78.85
2018-09-17T06:42:11.497Z,79.22
2018-09-17T06:43:11.446Z,78.30
2018-09-17T06:44:11.412Z,78.50
2018-09-17T06:45:11.397Z,78.09
2018-09-17T06:46:11.388Z,78.50
2018-09-17T06:47:11.431Z,78.98
2018-09-17T06:48:11.361Z,78.98
2018-09-17T06:49:11.355Z,78.37
2018-09-17T06:50:11.346Z,78.06
2018-09-17T06:51:11.340Z,77.75
2018-09-17T06:52:11.350Z,77.96
2018-09-17T06:53:11.333Z,77.82
2018-09-17T06:54:11.297Z,76.80
2018-09-17T06:55:11.293Z,76.80
2018-09-17T06:56:11.278Z,76.59
2018-09-17T06:57:11.266Z,76.46
2018-09-17T06:58:11.283Z,75.64
2018-09-17T06:59:11.239Z,75.54
2018-09-17T07:00:11.253Z,75.60
2018-09-17T07:01:11.224Z,75.51
2018-09-17T07:02:11.207Z,73.77
2018-09-17T07:03:11.217Z,73.74
2018-09-17T07:04:11.223Z,73.33
2018-09-17T07:05:11.175Z,73.40
2018-09-17T07:06:11.171Z,72.89
2018-09-17T07:07:11.166Z,73.40
2018-09-17T07:08:11.139Z,72.25
2018-09-17T07:09:11.173Z,73.16
2018-09-17T07:10:11.119Z,72.31
2018-09-17T07:11:11.111Z,71.16
2018-09-17T07:12:11.097Z,70.35
2018-09-17T07:13:11.105Z,70.31
2018-09-17T07:14:11.107Z,71.73
2018-09-17T07:15:11.082Z,69.87
2018-09-17T07:16:11.049Z,70.28
2018-09-17T07:17:11.038Z,70.35
2018-09-17T07:18:11.076Z,70.25
2018-09-17T07:19:11.048Z,69.00
2018-09-17T07:20:11.051Z,68.70
2018-09-17T07:21:10.997Z,68.66
2018-09-17T07:22:10.992Z,68.23
2018-09-17T07:23:10.972Z,68.12
2018-09-17T07:24:10.961Z,66.67
2018-09-17T07:25:11.009Z,66.47
2018-09-17T07:26:10.939Z,64.72
2018-09-17T07:27:10.927Z,64.31
2018-09-17T07:28:10.918Z,63.81
2018-09-17T07:29:10.907Z,64.72
2018-09-17T07:30:10.927Z,64.92
2018-09-17T07:31:10.911Z,61.98
2018-09-17T07:32:10.874Z,63.20
2018-09-17T07:33:10.869Z,64.11
2018-09-17T07:34:10.859Z,65.32
2018-09-17T07:35:10.867Z,62.69
2018-09-17T07:36:10.894Z,62.79
2018-09-17T07:37:10.817Z,61.78
2018-09-17T07:38:10.806Z,61.17
2018-09-17T07:39:10.794Z,61.98
2018-09-17T07:40:10.814Z,62.29
2018-09-17T07:41:10.780Z,63.17
2018-09-17T07:42:10.780Z,62.56
2018-09-17T07:43:10.749Z,61.65
2018-09-17T07:44:10.774Z,62.15
2018-09-17T07:45:10.731Z,63.24
2018-09-17T07:46:10.733Z,61.21
2018-09-17T07:47:10.705Z,61.72
2018-09-17T07:48:10.727Z,61.01
2018-09-17T07:49:10.823Z,61.29
2018-09-17T07:50:10.673Z,60.68
2018-09-17T07:51:10.661Z,62.47
2018-09-17T07:52:10.657Z,61.25
2018-09-17T07:53:10.651Z,61.23
2018-09-17T07:54:10.679Z,59.41
2018-09-17T07:55:10.621Z,58.80
2018-09-17T07:56:10.656Z,59.74
2018-09-17T07:57:10.600Z,58.91
2018-09-17T07:58:10.595Z,58.70
2018-09-17T07:59:10.581Z,59.31
2018-09-17T08:00:10.571Z,59.51
2018-09-17T08:01:10.599Z,59.58
2018-09-17T08:02:10.541Z,58.98
2018-09-17T08:03:10.530Z,58.78
2018-09-17T08:04:10.522Z,60.09
2018-09-17T08:05:10.521Z,59.56
2018-09-17T08:06:10.544Z,57.84
2018-09-17T08:07:10.483Z,58.25
2018-09-17T08:08:10.486Z,59.33
2018-09-17T08:09:10.468Z,57.21
2018-09-17T08:10:10.450Z,58.39
2018-09-17T08:11:10.483Z,58.72
2018-09-17T08:12:10.429Z,57.78
2018-09-17T08:13:10.417Z,57.78
2018-09-17T08:14:10.408Z,56.40
2018-09-17T08:15:10.399Z,56.88
2018-09-17T08:16:10.419Z,57.68
2018-09-17T08:17:10.377Z,58.16
2018-09-17T08:18:10.364Z,57.05
2018-09-17T08:19:10.351Z,57.76
2018-09-17T08:20:10.343Z,57.03
2018-09-17T08:21:10.371Z,55.64
2018-09-17T08:22:10.321Z,55.24
2018-09-17T08:23:10.322Z,55.94
2018-09-17T08:24:10.294Z,55.34
2018-09-17T08:25:10.333Z,55.51
2018-09-17T08:26:10.273Z,55.62
2018-09-17T08:27:10.263Z,54.79
2018-09-17T08:28:10.287Z,55.49
2018-09-17T08:29:10.250Z,53.65
2018-09-17T08:30:10.230Z,54.33
2018-09-17T08:31:10.276Z,55.74
2018-09-17T08:32:10.211Z,55.41
2018-09-17T08:33:10.242Z,53.60
2018-09-17T08:34:10.194Z,51.89
2018-09-17T08:35:10.182Z,53.47
2018-09-17T08:36:10.169Z,51.97
2018-09-17T08:37:10.150Z,52.57
2018-09-17T08:38:10.174Z,50.43
2018-09-17T08:39:10.163Z,51.04
2018-09-17T08:40:10.146Z,51.61
2018-09-17T08:41:10.108Z,49.80
2018-09-17T08:42:10.096Z,48.88
2018-09-17T08:43:10.144Z,49.58
2018-09-17T08:44:10.073Z,48.48
2018-09-17T08:45:10.064Z,48.55
2018-09-17T08:46:10.077Z,49.33
2018-09-17T08:47:10.044Z,49.43
2018-09-17T08:48:10.082Z,48.51
2018-09-17T08:49:10.021Z,47.99
2018-09-17T08:50:10.012Z,47.96
2018-09-17T08:51:09.999Z,47.14
2018-09-17T08:52:10.025Z,45.94
2018-09-17T08:53:10.057Z,47.24
2018-09-17T08:54:09.965Z,47.31
2018-09-17T08:55:09.954Z,46.81
2018-09-17T08:56:09.971Z,47.42
2018-09-17T08:57:09.936Z,46.80
2018-09-17T08:58:09.950Z,46.87
2018-09-17T08:59:09.913Z,47.37
2018-09-17T09:00:09.902Z,46.05
2018-09-17T09:01:09.917Z,46.03
2018-09-17T09:02:09.876Z,45.33
2018-09-17T09:03:09.863Z,45.73
2018-09-17T09:04:09.854Z,45.51
2018-09-17T09:05:09.866Z,44.03
2018-09-17T09:06:09.858Z,43.61
2018-09-17T09:07:09.818Z,43.89
2018-09-17T09:08:09.807Z,43.79
2018-09-17T09:09:09.810Z,43.09
2018-09-17T09:10:09.792Z,43.49
2018-09-17T09:11:09.813Z,43.49
2018-09-17T09:12:09.770Z,43.79
2018-09-17T09:13:09.761Z,43.29
2018-09-17T09:14:09.742Z,43.39
2018-09-17T09:15:09.737Z,45.06
2018-09-17T09:16:09.744Z,43.67
2018-09-17T09:17:09.724Z,43.65
2018-09-17T09:18:09.700Z,43.82
2018-09-17T09:19:09.693Z,43.21
2018-09-17T09:20:09.683Z,44.28
2018-09-17T09:21:09.690Z,43.38
2018-09-17T09:22:09.659Z,40.92
2018-09-17T09:23:09.648Z,41.53
2018-09-17T09:24:09.633Z,42.05
2018-09-17T09:25:09.622Z,42.27
2018-09-17T09:26:09.640Z,45.26
2018-09-17T09:27:09.630Z,42.79
2018-09-17T09:28:09.601Z,43.79
2018-09-17T09:29:09.587Z,45.26
2018-09-17T09:30:09.575Z,43.65
2018-09-17T09:31:09.556Z,42.75
2018-09-17T09:32:09.635Z,41.96
2018-09-17T09:33:09.561Z,42.63
2018-09-17T09:34:09.527Z,43.11
2018-09-17T09:35:09.518Z,41.44
2018-09-17T09:36:09.547Z,41.22
2018-09-17T09:37:09.577Z,43.60
2018-09-17T09:38:09.501Z,43.38
2018-09-17T09:39:09.469Z,41.30
2018-09-17T09:40:09.472Z,41.99
2018-09-17T09:41:09.448Z,41.77
2018-09-17T09:42:09.460Z,42.57
2018-09-17T09:43:09.452Z,42.55
2018-09-17T09:44:09.434Z,42.23
2018-09-17T09:45:09.408Z,40.52
2018-09-17T09:46:09.397Z,38.85
2018-09-17T09:47:09.388Z,40.52
2018-09-17T09:48:09.412Z,40.41
2018-09-17T09:49:09.374Z,41.99
2018-09-17T09:50:09.358Z,41.30
2018-09-17T09:51:09.339Z,40.20
2018-09-17T09:52:09.343Z,40.58
2018-09-17T09:53:09.350Z,40.80
2018-09-17T09:54:09.307Z,39.33
2018-09-17T09:55:09.300Z,40.34
2018-09-17T09:56:09.291Z,40.22
2018-09-17T09:57:09.274Z,40.03
2018-09-17T09:58:09.288Z,42.51
2018-09-17T09:59:09.267Z,41.09
2018-09-17T10:00:09.242Z,40.48
2018-09-17T10:01:09.249Z,38.48
2018-09-17T10:02:09.226Z,39.97
2018-09-17T10:03:09.229Z,39.19
2018-09-17T10:04:09.227Z,40.17
2018-09-17T10:05:09.196Z,38.10
2018-09-17T10:06:09.186Z,41.16
2018-09-17T10:07:09.170Z,37.88
2018-09-17T10:08:09.159Z,38.58
2018-09-17T10:09:09.208Z,38.58
2018-09-17T10:10:09.217Z,38.56
2018-09-17T10:11:09.173Z,41.04
2018-09-17T10:12:09.111Z,37.96
2018-09-17T10:13:09.103Z,38.17
2018-09-17T10:14:09.117Z,40.44
2018-09-17T10:15:09.113Z,37.81
2018-09-17T10:16:09.095Z,39.89
2018-09-17T10:17:09.063Z,40.28
2018-09-17T10:18:09.045Z,39.07
2018-09-17T10:19:09.050Z,39.97
2018-09-17T10:20:09.057Z,39.77
2018-09-17T10:21:09.045Z,38.07
2018-09-17T10:22:09.012Z,38.56
2018-09-17T10:23:08.995Z,39.45
2018-09-17T10:24:08.981Z,39.55
2018-09-17T10:25:08.997Z,40.23
2018-09-17T10:26:08.983Z,39.83
2018-09-17T10:27:08.950Z,40.01
2018-09-17T10:28:08.940Z,40.90
2018-09-17T10:29:08.927Z,39.71
2018-09-17T10:30:08.916Z,36.84
2018-09-17T10:31:08.937Z,38.44
2018-09-17T10:32:08.899Z,36.77
2018-09-17T10:33:08.884Z,37.69
2018-09-17T10:34:08.877Z,39.87
2018-09-17T10:35:08.867Z,39.95
2018-09-17T10:36:08.881Z,40.64
2018-09-17T10:37:08.843Z,37.96
2018-09-17T10:38:08.830Z,39.73
2018-09-17T10:39:08.833Z,38.84
2018-09-17T10:40:08.812Z,38.15
2018-09-17T10:41:08.819Z,38.54
2018-09-17T10:42:08.795Z,39.71
2018-09-17T10:43:08.778Z,38.44
2018-09-17T10:44:08.774Z,36.96
2018-09-17T10:45:08.755Z,38.94
2018-09-17T10:46:08.775Z,37.34
2018-09-17T10:47:08.740Z,37.05
2018-09-17T10:48:08.728Z,39.53
2018-09-17T10:49:08.722Z,39.43
2018-09-17T10:50:08.704Z,38.94
2018-09-17T10:51:08.728Z,37.95
2018-09-17T10:52:08.684Z,37.95
2018-09-17T10:53:08.675Z,38.15
2018-09-17T10:54:08.662Z,36.96
2018-09-17T10:55:08.669Z,38.17
2018-09-17T10:56:08.674Z,37.95
2018-09-17T10:57:08.640Z,38.46
2018-09-17T10:58:08.621Z,41.14
2018-09-17T10:59:08.613Z,39.95
2018-09-17T11:00:08.599Z,38.64
2018-09-17T11:01:08.611Z,38.23
2018-09-17T11:02:08.578Z,38.13
2018-09-17T11:03:08.561Z,37.12
2018-09-17T11:04:08.550Z,38.09
2018-09-17T11:05:08.591Z,35.83
2018-09-17T11:06:08.529Z,36.23
2018-09-17T11:07:08.533Z,35.53
2018-09-17T11:08:08.549Z,38.31
2018-09-17T11:09:08.501Z,35.73
2018-09-17T11:10:08.508Z,35.52
2018-09-17T11:11:08.483Z,37.00
2018-09-17T11:12:08.498Z,36.98
2018-09-17T11:13:08.459Z,38.07
2018-09-17T11:14:08.457Z,38.27
2018-09-17T11:15:08.439Z,37.58
2018-09-17T11:16:08.427Z,37.36
2018-09-17T11:17:08.465Z,37.46
2018-09-17T11:18:08.403Z,35.96
2018-09-17T11:19:08.394Z,34.89
2018-09-17T11:20:08.385Z,36.87
2018-09-17T11:21:08.371Z,36.67
2018-09-17T11:22:08.394Z,36.37
2018-09-17T11:23:08.350Z,35.49
2018-09-17T11:24:08.339Z,36.39
2018-09-17T11:25:08.341Z,36.59
2018-09-17T11:26:08.332Z,36.18
2018-09-17T11:27:08.331Z,35.28
2018-09-17T11:28:08.303Z,34.91
2018-09-17T11:29:08.286Z,35.82
2018-09-17T11:30:08.277Z,37.70
2018-09-17T11:31:08.265Z,36.72
2018-09-17T11:32:08.299Z,36.24
2018-09-17T11:33:08.242Z,36.76
2018-09-17T11:34:08.234Z,37.57
2018-09-17T11:35:08.229Z,38.78
2018-09-17T11:36:08.257Z,38.26
2018-09-17T11:37:08.229Z,37.09
2018-09-17T11:38:08.191Z,37.19
2018-09-17T11:39:08.215Z,37.69
2018-09-17T11:40:08.171Z,37.39
2018-09-17T11:41:08.180Z,38.28
2018-09-17T11:42:08.154Z,37.67
2018-09-17T11:43:08.141Z,36.68
2018-09-17T11:44:08.160Z,37.85
2018-09-17T11:45:08.116Z,37.93
2018-09-17T11:46:08.112Z,36.74
2018-09-17T11:47:08.112Z,36.72
2018-09-17T11:48:08.127Z,36.43
2018-09-17T11:49:08.076Z,36.80
2018-09-17T11:50:08.061Z,37.60
2018-09-17T11:51:08.066Z,36.31
2018-09-17T11:52:08.041Z,37.30
2018-09-17T11:53:08.094Z,35.32
2018-09-17T11:54:08.106Z,35.42
2018-09-17T11:55:08.013Z,36.80
2018-09-17T11:56:08.003Z,36.61
2018-09-17T11:57:07.987Z,35.89
2018-09-17T11:58:07.979Z,35.30
2018-09-17T11:59:07.991Z,35.21
2018-09-17T12:00:07.964Z,36.19
2018-09-17T12:01:07.945Z,35.40
2018-09-17T12:02:07.980Z,34.41
2018-09-17T12:03:07.931Z,35.50
2018-09-17T12:04:07.943Z,34.89
2018-09-17T12:05:07.908Z,35.30
2018-09-17T12:06:07.893Z,36.29
2018-09-17T12:07:07.880Z,35.60
2018-09-17T12:08:07.915Z,35.89
2018-09-17T12:09:07.900Z,34.91
2018-09-17T12:10:07.850Z,35.00
2018-09-17T12:11:07.844Z,35.11
2018-09-17T12:12:07.839Z,35.61
2018-09-17T12:13:08.164Z,36.51
2018-09-17T12:14:07.841Z,36.41
2018-09-17T12:15:07.796Z,35.61
2018-09-17T12:16:07.790Z,35.22
2018-09-17T12:17:07.778Z,34.92
2018-09-17T12:18:07.764Z,37.49
2018-09-17T12:19:07.774Z,36.21
2018-09-17T12:20:07.790Z,35.52
2018-09-17T12:21:07.737Z,34.92
2018-09-17T12:22:07.721Z,37.32
2018-09-17T12:23:07.715Z,36.31
2018-09-17T12:24:07.706Z,36.21
2018-09-17T12:25:07.716Z,36.61
2018-09-17T12:26:07.680Z,39.77
2018-09-17T12:27:07.680Z,34.73
2018-09-17T12:28:07.659Z,34.55
2018-09-17T12:29:07.667Z,35.34
2018-09-17T12:30:07.647Z,35.06
2018-09-17T12:31:07.629Z,37.04
2018-09-17T12:32:07.613Z,37.81
2018-09-17T12:33:07.605Z,35.34
2018-09-17T12:34:07.622Z,35.06
2018-09-17T12:35:07.587Z,35.65
2018-09-17T12:36:07.620Z,36.84
2018-09-17T12:37:07.568Z,37.13
2018-09-17T12:38:07.550Z,35.65
2018-09-17T12:39:07.546Z,36.44
2018-09-17T12:40:07.531Z,36.82
2018-09-17T12:41:07.549Z,35.44
2018-09-17T12:42:07.520Z,36.21
2018-09-17T12:43:07.503Z,35.24
2018-09-17T12:44:07.490Z,34.74
2018-09-17T12:45:07.479Z,36.92
2018-09-17T12:46:07.501Z,37.00
2018-09-17T12:47:07.456Z,38.39
2018-09-17T12:48:07.454Z,38.19
2018-09-17T12:49:07.434Z,36.71
2018-09-17T12:50:07.426Z,35.02
2018-09-17T12:51:07.447Z,36.80
2018-09-17T12:52:07.424Z,35.61